sensor_id;sensor_type;location;lat;lon;timestamp;P1;durP1;ratioP1;P2;durP2;ratioP2
71236;SDS011;58984;51.960;5.582;2023-07-09T00:02:15;7.82;;;5.78;;
71236;SDS011;58984;51.960;5.582;2023-07-09T00:04:41;11.65;;;5.93;;
71236;SDS011;58984;51.960;5.582;2023-07-09T00:07:11;8.70;;;4.90;;
71236;SDS011;58984;51.960;5.582;2023-07-09T00:10:18;6.72;;;5.05;;
71236;SDS011;58984;51.960;5.582;2023-07-09T00:12:45;8.95;;;6.20;;
71236;SDS011;58984;51.960;5.582;2023-07-09T00:15:12;8.05;;;5.43;;
71236;SDS011;58984;51.960;5.582;2023-07-09T00:17:40;9.40;;;5.85;;
71236;SDS011;58984;51.960;5.582;2023-07-09T00:20:15;7.82;;;5.25;;
71236;SDS011;58984;51.960;5.582;2023-07-09T00:22:42;12.27;;;5.78;;
71236;SDS011;58984;51.960;5.582;2023-07-09T00:25:17;8.07;;;5.22;;
71236;SDS011;58984;51.960;5.582;2023-07-09T00:27:44;8.50;;;5.40;;
71236;SDS011;58984;51.960;5.582;2023-07-09T00:30:17;7.50;;;5.07;;
71236;SDS011;58984;51.960;5.582;2023-07-09T00:32:47;9.20;;;5.00;;
71236;SDS011;58984;51.960;5.582;2023-07-09T00:35:17;9.65;;;5.45;;
71236;SDS011;58984;51.960;5.582;2023-07-09T00:37:43;9.63;;;5.45;;
71236;SDS011;58984;51.960;5.582;2023-07-09T00:40:12;10.20;;;5.80;;
71236;SDS011;58984;51.960;5.582;2023-07-09T00:42:42;7.60;;;5.30;;
71236;SDS011;58984;51.960;5.582;2023-07-09T00:45:17;8.75;;;5.40;;
71236;SDS011;58984;51.960;5.582;2023-07-09T00:50:33;9.23;;;5.72;;
71236;SDS011;58984;51.960;5.582;2023-07-09T00:56:11;7.30;;;5.57;;
71236;SDS011;58984;51.960;5.582;2023-07-09T00:58:45;7.45;;;5.55;;
71236;SDS011;58984;51.960;5.582;2023-07-09T01:01:13;8.75;;;5.85;;
71236;SDS011;58984;51.960;5.582;2023-07-09T01:03:44;6.35;;;5.22;;
71236;SDS011;58984;51.960;5.582;2023-07-09T01:06:12;8.63;;;5.40;;
71236;SDS011;58984;51.960;5.582;2023-07-09T01:08:40;6.97;;;4.90;;
71236;SDS011;58984;51.960;5.582;2023-07-09T01:11:19;9.27;;;5.18;;
71236;SDS011;58984;51.960;5.582;2023-07-09T01:13:49;8.73;;;5.13;;
71236;SDS011;58984;51.960;5.582;2023-07-09T01:16:20;6.50;;;5.18;;
71236;SDS011;58984;51.960;5.582;2023-07-09T01:18:49;8.75;;;5.40;;
71236;SDS011;58984;51.960;5.582;2023-07-09T01:21:15;7.95;;;5.40;;
71236;SDS011;58984;51.960;5.582;2023-07-09T01:23:42;9.75;;;5.45;;
71236;SDS011;58984;51.960;5.582;2023-07-09T01:26:13;9.73;;;5.90;;
71236;SDS011;58984;51.960;5.582;2023-07-09T01:28:42;9.45;;;5.68;;
71236;SDS011;58984;51.960;5.582;2023-07-09T01:31:11;9.10;;;5.72;;
71236;SDS011;58984;51.960;5.582;2023-07-09T01:33:38;10.35;;;6.70;;
71236;SDS011;58984;51.960;5.582;2023-07-09T01:36:25;6.53;;;5.40;;
71236;SDS011;58984;51.960;5.582;2023-07-09T01:38:50;8.65;;;5.90;;
71236;SDS011;58984;51.960;5.582;2023-07-09T01:41:18;8.60;;;6.25;;
71236;SDS011;58984;51.960;5.582;2023-07-09T01:43:44;8.77;;;5.70;;
71236;SDS011;58984;51.960;5.582;2023-07-09T01:46:11;10.13;;;6.38;;
71236;SDS011;58984;51.960;5.582;2023-07-09T01:48:37;8.10;;;5.53;;
71236;SDS011;58984;51.960;5.582;2023-07-09T01:51:10;9.75;;;5.85;;
71236;SDS011;58984;51.960;5.582;2023-07-09T01:53:38;8.75;;;5.90;;
71236;SDS011;58984;51.960;5.582;2023-07-09T01:56:05;13.73;;;6.90;;
71236;SDS011;58984;51.960;5.582;2023-07-09T01:58:32;10.52;;;6.50;;
71236;SDS011;58984;51.960;5.582;2023-07-09T02:00:59;7.68;;;5.93;;
71236;SDS011;58984;51.960;5.582;2023-07-09T02:03:25;10.52;;;6.22;;
71236;SDS011;58984;51.960;5.582;2023-07-09T02:05:53;8.60;;;5.80;;
71236;SDS011;58984;51.960;5.582;2023-07-09T02:08:20;13.18;;;7.00;;
71236;SDS011;58984;51.960;5.582;2023-07-09T02:10:49;9.15;;;5.72;;
71236;SDS011;58984;51.960;5.582;2023-07-09T02:13:15;7.13;;;5.97;;
71236;SDS011;58984;51.960;5.582;2023-07-09T02:15:44;9.82;;;6.10;;
71236;SDS011;58984;51.960;5.582;2023-07-09T02:18:10;9.30;;;6.93;;
71236;SDS011;58984;51.960;5.582;2023-07-09T02:20:37;9.68;;;6.43;;
71236;SDS011;58984;51.960;5.582;2023-07-09T02:23:03;12.27;;;7.30;;
71236;SDS011;58984;51.960;5.582;2023-07-09T02:25:29;10.18;;;6.22;;
71236;SDS011;58984;51.960;5.582;2023-07-09T02:27:54;8.25;;;5.97;;
71236;SDS011;58984;51.960;5.582;2023-07-09T02:30:20;8.90;;;6.95;;
71236;SDS011;58984;51.960;5.582;2023-07-09T02:32:45;8.13;;;6.10;;
71236;SDS011;58984;51.960;5.582;2023-07-09T02:35:11;10.88;;;6.57;;
71236;SDS011;58984;51.960;5.582;2023-07-09T02:37:37;15.20;;;7.25;;
71236;SDS011;58984;51.960;5.582;2023-07-09T02:40:03;10.40;;;6.25;;
71236;SDS011;58984;51.960;5.582;2023-07-09T02:42:30;8.60;;;6.65;;
71236;SDS011;58984;51.960;5.582;2023-07-09T02:44:56;7.90;;;5.85;;
71236;SDS011;58984;51.960;5.582;2023-07-09T02:47:21;8.55;;;6.53;;
71236;SDS011;58984;51.960;5.582;2023-07-09T02:49:47;12.23;;;6.70;;
71236;SDS011;58984;51.960;5.582;2023-07-09T02:52:13;9.57;;;6.30;;
71236;SDS011;58984;51.960;5.582;2023-07-09T02:54:39;10.35;;;7.03;;
71236;SDS011;58984;51.960;5.582;2023-07-09T02:57:05;13.63;;;7.45;;
71236;SDS011;58984;51.960;5.582;2023-07-09T02:59:31;10.15;;;6.88;;
71236;SDS011;58984;51.960;5.582;2023-07-09T03:01:58;11.20;;;7.45;;
71236;SDS011;58984;51.960;5.582;2023-07-09T03:04:24;13.15;;;8.15;;
71236;SDS011;58984;51.960;5.582;2023-07-09T03:06:50;10.00;;;6.90;;
71236;SDS011;58984;51.960;5.582;2023-07-09T03:09:17;14.68;;;8.02;;
71236;SDS011;58984;51.960;5.582;2023-07-09T03:11:43;10.18;;;7.38;;
71236;SDS011;58984;51.960;5.582;2023-07-09T03:14:08;14.07;;;7.53;;
71236;SDS011;58984;51.960;5.582;2023-07-09T03:16:34;10.60;;;7.85;;
71236;SDS011;58984;51.960;5.582;2023-07-09T03:19:00;11.85;;;7.55;;
71236;SDS011;58984;51.960;5.582;2023-07-09T03:21:28;12.73;;;7.43;;
71236;SDS011;58984;51.960;5.582;2023-07-09T03:23:54;12.80;;;7.78;;
71236;SDS011;58984;51.960;5.582;2023-07-09T03:26:20;11.68;;;7.57;;
71236;SDS011;58984;51.960;5.582;2023-07-09T03:28:46;12.73;;;8.25;;
71236;SDS011;58984;51.960;5.582;2023-07-09T03:31:12;12.73;;;8.20;;
71236;SDS011;58984;51.960;5.582;2023-07-09T03:33:38;12.20;;;8.50;;
71236;SDS011;58984;51.960;5.582;2023-07-09T03:36:04;14.05;;;7.80;;
71236;SDS011;58984;51.960;5.582;2023-07-09T03:38:30;13.30;;;8.20;;
71236;SDS011;58984;51.960;5.582;2023-07-09T03:40:56;9.63;;;7.90;;
71236;SDS011;58984;51.960;5.582;2023-07-09T03:43:22;12.82;;;7.80;;
71236;SDS011;58984;51.960;5.582;2023-07-09T03:45:48;11.05;;;7.78;;
71236;SDS011;58984;51.960;5.582;2023-07-09T03:48:15;11.45;;;8.35;;
71236;SDS011;58984;51.960;5.582;2023-07-09T03:50:42;12.40;;;7.85;;
71236;SDS011;58984;51.960;5.582;2023-07-09T03:53:09;10.75;;;7.95;;
71236;SDS011;58984;51.960;5.582;2023-07-09T03:55:34;11.65;;;8.00;;
71236;SDS011;58984;51.960;5.582;2023-07-09T03:58:00;11.63;;;8.07;;
71236;SDS011;58984;51.960;5.582;2023-07-09T04:00:27;11.80;;;8.23;;
71236;SDS011;58984;51.960;5.582;2023-07-09T04:02:54;12.88;;;8.13;;
71236;SDS011;58984;51.960;5.582;2023-07-09T04:05:21;12.02;;;8.07;;
71236;SDS011;58984;51.960;5.582;2023-07-09T04:07:51;14.77;;;7.97;;
71236;SDS011;58984;51.960;5.582;2023-07-09T04:10:17;10.70;;;8.05;;
71236;SDS011;58984;51.960;5.582;2023-07-09T04:12:46;10.80;;;7.45;;
71236;SDS011;58984;51.960;5.582;2023-07-09T04:15:12;10.02;;;7.68;;
71236;SDS011;58984;51.960;5.582;2023-07-09T04:17:37;14.60;;;8.43;;
71236;SDS011;58984;51.960;5.582;2023-07-09T04:20:04;11.45;;;7.53;;
71236;SDS011;58984;51.960;5.582;2023-07-09T04:22:33;10.43;;;7.93;;
71236;SDS011;58984;51.960;5.582;2023-07-09T04:25:00;10.55;;;7.47;;
71236;SDS011;58984;51.960;5.582;2023-07-09T04:27:26;11.88;;;7.65;;
71236;SDS011;58984;51.960;5.582;2023-07-09T04:29:52;10.07;;;7.90;;
71236;SDS011;58984;51.960;5.582;2023-07-09T04:32:18;12.27;;;8.18;;
71236;SDS011;58984;51.960;5.582;2023-07-09T04:34:44;13.57;;;9.18;;
71236;SDS011;58984;51.960;5.582;2023-07-09T04:37:10;9.63;;;8.07;;
71236;SDS011;58984;51.960;5.582;2023-07-09T04:39:41;11.95;;;8.43;;
71236;SDS011;58984;51.960;5.582;2023-07-09T04:42:12;12.98;;;8.07;;
71236;SDS011;58984;51.960;5.582;2023-07-09T04:44:39;9.45;;;7.40;;
71236;SDS011;58984;51.960;5.582;2023-07-09T04:47:05;12.15;;;8.23;;
71236;SDS011;58984;51.960;5.582;2023-07-09T04:49:31;12.63;;;7.90;;
71236;SDS011;58984;51.960;5.582;2023-07-09T04:51:57;11.20;;;7.45;;
71236;SDS011;58984;51.960;5.582;2023-07-09T04:54:24;12.27;;;7.90;;
71236;SDS011;58984;51.960;5.582;2023-07-09T04:56:50;10.45;;;7.57;;
71236;SDS011;58984;51.960;5.582;2023-07-09T04:59:16;8.32;;;7.00;;
71236;SDS011;58984;51.960;5.582;2023-07-09T05:01:41;9.82;;;7.53;;
71236;SDS011;58984;51.960;5.582;2023-07-09T05:04:07;11.18;;;7.45;;
71236;SDS011;58984;51.960;5.582;2023-07-09T05:06:34;12.38;;;8.90;;
71236;SDS011;58984;51.960;5.582;2023-07-09T05:09:00;13.75;;;8.65;;
71236;SDS011;58984;51.960;5.582;2023-07-09T05:11:26;10.38;;;8.20;;
71236;SDS011;58984;51.960;5.582;2023-07-09T05:13:52;10.93;;;8.05;;
71236;SDS011;58984;51.960;5.582;2023-07-09T05:16:18;10.65;;;7.88;;
71236;SDS011;58984;51.960;5.582;2023-07-09T05:18:45;12.00;;;8.38;;
71236;SDS011;58984;51.960;5.582;2023-07-09T05:21:11;12.48;;;8.25;;
71236;SDS011;58984;51.960;5.582;2023-07-09T05:23:39;14.10;;;9.35;;
71236;SDS011;58984;51.960;5.582;2023-07-09T05:26:05;13.13;;;9.48;;
71236;SDS011;58984;51.960;5.582;2023-07-09T05:28:30;15.40;;;10.55;;
71236;SDS011;58984;51.960;5.582;2023-07-09T05:30:59;14.93;;;10.38;;
71236;SDS011;58984;51.960;5.582;2023-07-09T05:33:25;16.38;;;11.20;;
71236;SDS011;58984;51.960;5.582;2023-07-09T05:35:51;18.20;;;11.35;;
71236;SDS011;58984;51.960;5.582;2023-07-09T05:38:16;19.95;;;12.52;;
71236;SDS011;58984;51.960;5.582;2023-07-09T05:40:42;19.58;;;12.18;;
71236;SDS011;58984;51.960;5.582;2023-07-09T05:43:09;21.45;;;12.82;;
71236;SDS011;58984;51.960;5.582;2023-07-09T05:45:38;15.02;;;10.95;;
71236;SDS011;58984;51.960;5.582;2023-07-09T05:48:04;15.80;;;10.90;;
71236;SDS011;58984;51.960;5.582;2023-07-09T05:50:32;15.10;;;10.65;;
71236;SDS011;58984;51.960;5.582;2023-07-09T05:52:58;14.75;;;10.50;;
71236;SDS011;58984;51.960;5.582;2023-07-09T05:55:24;14.25;;;10.15;;
71236;SDS011;58984;51.960;5.582;2023-07-09T05:57:50;13.18;;;10.98;;
71236;SDS011;58984;51.960;5.582;2023-07-09T06:00:17;18.40;;;11.15;;
71236;SDS011;58984;51.960;5.582;2023-07-09T06:02:42;13.55;;;10.60;;
71236;SDS011;58984;51.960;5.582;2023-07-09T06:05:08;13.35;;;10.10;;
71236;SDS011;58984;51.960;5.582;2023-07-09T06:07:34;15.93;;;10.90;;
71236;SDS011;58984;51.960;5.582;2023-07-09T06:10:00;17.20;;;10.48;;
71236;SDS011;58984;51.960;5.582;2023-07-09T06:12:25;15.77;;;11.07;;
71236;SDS011;58984;51.960;5.582;2023-07-09T06:14:51;16.80;;;11.90;;
71236;SDS011;58984;51.960;5.582;2023-07-09T06:17:17;17.13;;;12.40;;
71236;SDS011;58984;51.960;5.582;2023-07-09T06:19:42;18.90;;;12.45;;
71236;SDS011;58984;51.960;5.582;2023-07-09T06:22:08;17.95;;;12.10;;
71236;SDS011;58984;51.960;5.582;2023-07-09T06:24:34;20.05;;;12.80;;
71236;SDS011;58984;51.960;5.582;2023-07-09T06:27:00;19.35;;;12.40;;
71236;SDS011;58984;51.960;5.582;2023-07-09T06:29:25;18.95;;;12.25;;
71236;SDS011;58984;51.960;5.582;2023-07-09T06:31:51;15.90;;;12.63;;
71236;SDS011;58984;51.960;5.582;2023-07-09T06:34:16;13.55;;;11.45;;
71236;SDS011;58984;51.960;5.582;2023-07-09T06:36:42;16.50;;;12.02;;
71236;SDS011;58984;51.960;5.582;2023-07-09T06:39:08;17.45;;;12.15;;
71236;SDS011;58984;51.960;5.582;2023-07-09T06:41:34;17.40;;;11.45;;
71236;SDS011;58984;51.960;5.582;2023-07-09T06:44:04;15.52;;;11.68;;
71236;SDS011;58984;51.960;5.582;2023-07-09T06:46:33;17.98;;;11.77;;
71236;SDS011;58984;51.960;5.582;2023-07-09T06:49:00;14.68;;;11.30;;
71236;SDS011;58984;51.960;5.582;2023-07-09T06:51:26;16.15;;;11.02;;
71236;SDS011;58984;51.960;5.582;2023-07-09T06:53:52;16.17;;;11.10;;
71236;SDS011;58984;51.960;5.582;2023-07-09T06:56:17;13.00;;;10.82;;
71236;SDS011;58984;51.960;5.582;2023-07-09T06:58:43;19.73;;;11.93;;
71236;SDS011;58984;51.960;5.582;2023-07-09T07:01:11;13.93;;;10.93;;
71236;SDS011;58984;51.960;5.582;2023-07-09T07:03:37;16.38;;;10.73;;
71236;SDS011;58984;51.960;5.582;2023-07-09T07:06:03;17.10;;;11.45;;
71236;SDS011;58984;51.960;5.582;2023-07-09T07:08:31;15.13;;;10.77;;
71236;SDS011;58984;51.960;5.582;2023-07-09T07:10:59;14.25;;;11.00;;
71236;SDS011;58984;51.960;5.582;2023-07-09T07:13:37;13.80;;;11.02;;
71236;SDS011;58984;51.960;5.582;2023-07-09T07:16:05;15.55;;;10.40;;
71236;SDS011;58984;51.960;5.582;2023-07-09T07:18:32;16.20;;;11.60;;
71236;SDS011;58984;51.960;5.582;2023-07-09T07:20:58;16.23;;;11.13;;
71236;SDS011;58984;51.960;5.582;2023-07-09T07:23:24;12.55;;;10.38;;
71236;SDS011;58984;51.960;5.582;2023-07-09T07:25:50;14.77;;;11.05;;
71236;SDS011;58984;51.960;5.582;2023-07-09T07:28:17;17.13;;;11.15;;
71236;SDS011;58984;51.960;5.582;2023-07-09T07:30:43;16.50;;;10.35;;
71236;SDS011;58984;51.960;5.582;2023-07-09T07:33:09;11.55;;;10.32;;
71236;SDS011;58984;51.960;5.582;2023-07-09T07:35:35;19.73;;;12.32;;
71236;SDS011;58984;51.960;5.582;2023-07-09T07:38:01;14.90;;;10.00;;
71236;SDS011;58984;51.960;5.582;2023-07-09T07:40:27;16.63;;;10.90;;
71236;SDS011;58984;51.960;5.582;2023-07-09T07:42:52;15.93;;;11.00;;
71236;SDS011;58984;51.960;5.582;2023-07-09T07:45:18;12.98;;;10.50;;
71236;SDS011;58984;51.960;5.582;2023-07-09T07:47:44;15.05;;;10.25;;
71236;SDS011;58984;51.960;5.582;2023-07-09T07:50:10;12.90;;;9.80;;
71236;SDS011;58984;51.960;5.582;2023-07-09T07:52:35;13.52;;;10.60;;
71236;SDS011;58984;51.960;5.582;2023-07-09T07:55:03;13.20;;;10.00;;
71236;SDS011;58984;51.960;5.582;2023-07-09T07:57:30;24.10;;;12.85;;
71236;SDS011;58984;51.960;5.582;2023-07-09T07:59:55;21.23;;;11.85;;
71236;SDS011;58984;51.960;5.582;2023-07-09T08:02:22;17.23;;;11.80;;
71236;SDS011;58984;51.960;5.582;2023-07-09T08:04:48;17.83;;;11.82;;
71236;SDS011;58984;51.960;5.582;2023-07-09T08:07:15;13.73;;;11.02;;
71236;SDS011;58984;51.960;5.582;2023-07-09T08:09:41;16.20;;;11.73;;
71236;SDS011;58984;51.960;5.582;2023-07-09T08:12:07;15.35;;;10.57;;
71236;SDS011;58984;51.960;5.582;2023-07-09T08:14:37;17.05;;;10.90;;
71236;SDS011;58984;51.960;5.582;2023-07-09T08:17:04;15.45;;;11.52;;
71236;SDS011;58984;51.960;5.582;2023-07-09T08:19:30;13.07;;;10.55;;
71236;SDS011;58984;51.960;5.582;2023-07-09T08:21:56;17.38;;;11.63;;
71236;SDS011;58984;51.960;5.582;2023-07-09T08:24:22;17.95;;;10.75;;
71236;SDS011;58984;51.960;5.582;2023-07-09T08:26:47;16.48;;;10.82;;
71236;SDS011;58984;51.960;5.582;2023-07-09T08:29:13;14.20;;;10.55;;
71236;SDS011;58984;51.960;5.582;2023-07-09T08:31:39;13.60;;;10.02;;
71236;SDS011;58984;51.960;5.582;2023-07-09T08:34:06;19.80;;;11.52;;
71236;SDS011;58984;51.960;5.582;2023-07-09T08:36:33;14.65;;;10.43;;
71236;SDS011;58984;51.960;5.582;2023-07-09T08:39:00;14.38;;;9.95;;
71236;SDS011;58984;51.960;5.582;2023-07-09T08:49:26;13.57;;;9.20;;
71236;SDS011;58984;51.960;5.582;2023-07-09T08:52:30;13.43;;;9.75;;
71236;SDS011;58984;51.960;5.582;2023-07-09T08:55:03;11.45;;;9.00;;
71236;SDS011;58984;51.960;5.582;2023-07-09T08:57:45;17.75;;;9.70;;
71236;SDS011;58984;51.960;5.582;2023-07-09T09:05:15;14.55;;;9.27;;
71236;SDS011;58984;51.960;5.582;2023-07-09T09:07:44;11.68;;;8.48;;
71236;SDS011;58984;51.960;5.582;2023-07-09T09:10:14;12.82;;;8.45;;
71236;SDS011;58984;51.960;5.582;2023-07-09T09:13:31;14.38;;;9.50;;
71236;SDS011;58984;51.960;5.582;2023-07-09T09:15:52;10.73;;;8.25;;
71236;SDS011;58984;51.960;5.582;2023-07-09T09:18:22;12.60;;;8.85;;
71236;SDS011;58984;51.960;5.582;2023-07-09T09:20:58;13.65;;;8.98;;
71236;SDS011;58984;51.960;5.582;2023-07-09T09:23:39;12.93;;;8.35;;
71236;SDS011;58984;51.960;5.582;2023-07-09T09:28:56;11.05;;;8.20;;
71236;SDS011;58984;51.960;5.582;2023-07-09T09:31:23;12.35;;;8.10;;
71236;SDS011;58984;51.960;5.582;2023-07-09T09:33:51;12.85;;;8.43;;
71236;SDS011;58984;51.960;5.582;2023-07-09T09:36:18;9.35;;;7.72;;
71236;SDS011;58984;51.960;5.582;2023-07-09T09:38:46;15.90;;;9.02;;
71236;SDS011;58984;51.960;5.582;2023-07-09T09:41:12;14.60;;;8.38;;
71236;SDS011;58984;51.960;5.582;2023-07-09T09:43:41;10.50;;;7.63;;
71236;SDS011;58984;51.960;5.582;2023-07-09T09:46:09;11.38;;;8.27;;
71236;SDS011;58984;51.960;5.582;2023-07-09T09:48:39;10.93;;;8.35;;
71236;SDS011;58984;51.960;5.582;2023-07-09T09:51:09;10.23;;;8.10;;
71236;SDS011;58984;51.960;5.582;2023-07-09T09:53:37;14.90;;;8.98;;
71236;SDS011;58984;51.960;5.582;2023-07-09T09:56:05;10.45;;;7.80;;
71236;SDS011;58984;51.960;5.582;2023-07-09T10:01:04;10.55;;;8.18;;
71236;SDS011;58984;51.960;5.582;2023-07-09T10:03:37;10.55;;;7.82;;
71236;SDS011;58984;51.960;5.582;2023-07-09T10:06:10;10.27;;;7.90;;
71236;SDS011;58984;51.960;5.582;2023-07-09T10:13:55;9.95;;;8.32;;
71236;SDS011;58984;51.960;5.582;2023-07-09T10:16:32;11.18;;;7.40;;
71236;SDS011;58984;51.960;5.582;2023-07-09T10:19:14;8.77;;;7.38;;
71236;SDS011;58984;51.960;5.582;2023-07-09T10:21:57;11.07;;;7.78;;
71236;SDS011;58984;51.960;5.582;2023-07-09T10:24:45;8.98;;;7.00;;
71236;SDS011;58984;51.960;5.582;2023-07-09T10:27:36;13.00;;;8.07;;
71236;SDS011;58984;51.960;5.582;2023-07-09T10:30:26;10.98;;;7.30;;
71236;SDS011;58984;51.960;5.582;2023-07-09T10:33:50;12.25;;;7.50;;
71236;SDS011;58984;51.960;5.582;2023-07-09T10:38:56;12.40;;;7.35;;
71236;SDS011;58984;51.960;5.582;2023-07-09T10:41:39;12.27;;;8.10;;
71236;SDS011;58984;51.960;5.582;2023-07-09T10:44:20;12.52;;;7.75;;
71236;SDS011;58984;51.960;5.582;2023-07-09T10:47:23;9.77;;;7.20;;
71236;SDS011;58984;51.960;5.582;2023-07-09T10:49:50;10.40;;;7.63;;
71236;SDS011;58984;51.960;5.582;2023-07-09T10:52:22;12.35;;;7.90;;
71236;SDS011;58984;51.960;5.582;2023-07-09T11:00:07;10.35;;;7.40;;
71236;SDS011;58984;51.960;5.582;2023-07-09T11:02:41;10.38;;;7.60;;
71236;SDS011;58984;51.960;5.582;2023-07-09T11:05:08;11.23;;;8.02;;
71236;SDS011;58984;51.960;5.582;2023-07-09T11:07:44;14.07;;;7.55;;
71236;SDS011;58984;51.960;5.582;2023-07-09T11:10:32;10.60;;;7.95;;
71236;SDS011;58984;51.960;5.582;2023-07-09T11:15:33;10.70;;;7.72;;
71236;SDS011;58984;51.960;5.582;2023-07-09T11:18:01;9.38;;;7.30;;
71236;SDS011;58984;51.960;5.582;2023-07-09T11:20:34;10.60;;;7.78;;
71236;SDS011;58984;51.960;5.582;2023-07-09T11:23:06;9.93;;;7.50;;
71236;SDS011;58984;51.960;5.582;2023-07-09T11:25:47;9.98;;;7.15;;
71236;SDS011;58984;51.960;5.582;2023-07-09T11:28:32;11.00;;;6.90;;
71236;SDS011;58984;51.960;5.582;2023-07-09T11:31:04;13.60;;;7.55;;
71236;SDS011;58984;51.960;5.582;2023-07-09T11:33:31;9.98;;;7.32;;
71236;SDS011;58984;51.960;5.582;2023-07-09T11:36:11;10.48;;;7.30;;
71236;SDS011;58984;51.960;5.582;2023-07-09T11:38:44;8.57;;;7.05;;
71236;SDS011;58984;51.960;5.582;2023-07-09T11:41:24;10.15;;;7.28;;
71236;SDS011;58984;51.960;5.582;2023-07-09T11:44:20;10.88;;;7.18;;
71236;SDS011;58984;51.960;5.582;2023-07-09T11:46:52;9.50;;;7.35;;
71236;SDS011;58984;51.960;5.582;2023-07-09T11:49:23;8.20;;;7.40;;
71236;SDS011;58984;51.960;5.582;2023-07-09T11:52:06;13.75;;;7.60;;
71236;SDS011;58984;51.960;5.582;2023-07-09T11:54:35;11.48;;;7.93;;
71236;SDS011;58984;51.960;5.582;2023-07-09T11:57:01;10.18;;;7.35;;
71236;SDS011;58984;51.960;5.582;2023-07-09T11:59:28;8.18;;;6.88;;
71236;SDS011;58984;51.960;5.582;2023-07-09T12:01:54;9.70;;;6.97;;
71236;SDS011;58984;51.960;5.582;2023-07-09T12:04:21;9.38;;;7.40;;
71236;SDS011;58984;51.960;5.582;2023-07-09T12:06:52;11.52;;;7.30;;
71236;SDS011;58984;51.960;5.582;2023-07-09T12:09:22;11.50;;;7.93;;
71236;SDS011;58984;51.960;5.582;2023-07-09T12:11:49;9.82;;;7.47;;
71236;SDS011;58984;51.960;5.582;2023-07-09T12:14:16;13.85;;;7.75;;
71236;SDS011;58984;51.960;5.582;2023-07-09T12:16:44;12.00;;;7.82;;
71236;SDS011;58984;51.960;5.582;2023-07-09T12:19:13;10.45;;;7.75;;
71236;SDS011;58984;51.960;5.582;2023-07-09T12:21:43;10.35;;;7.63;;
71236;SDS011;58984;51.960;5.582;2023-07-09T12:24:15;10.52;;;7.30;;
71236;SDS011;58984;51.960;5.582;2023-07-09T12:26:47;11.02;;;6.95;;
71236;SDS011;58984;51.960;5.582;2023-07-09T12:29:23;8.43;;;6.63;;
71236;SDS011;58984;51.960;5.582;2023-07-09T12:31:55;9.60;;;6.97;;
71236;SDS011;58984;51.960;5.582;2023-07-09T12:34:21;8.82;;;7.45;;
71236;SDS011;58984;51.960;5.582;2023-07-09T12:36:49;11.13;;;7.35;;
71236;SDS011;58984;51.960;5.582;2023-07-09T12:39:29;9.45;;;7.68;;
71236;SDS011;58984;51.960;5.582;2023-07-09T12:42:01;9.27;;;6.78;;
71236;SDS011;58984;51.960;5.582;2023-07-09T12:44:30;8.60;;;6.80;;
71236;SDS011;58984;51.960;5.582;2023-07-09T12:46:59;24.80;;;9.27;;
71236;SDS011;58984;51.960;5.582;2023-07-09T12:49:27;19.45;;;9.07;;
71236;SDS011;58984;51.960;5.582;2023-07-09T12:51:57;15.35;;;8.40;;
71236;SDS011;58984;51.960;5.582;2023-07-09T12:56:53;12.20;;;7.32;;
71236;SDS011;58984;51.960;5.582;2023-07-09T12:59:20;11.27;;;6.97;;
71236;SDS011;58984;51.960;5.582;2023-07-09T13:01:49;11.18;;;7.05;;
71236;SDS011;58984;51.960;5.582;2023-07-09T13:04:27;9.77;;;6.68;;
71236;SDS011;58984;51.960;5.582;2023-07-09T13:06:57;10.00;;;6.45;;
71236;SDS011;58984;51.960;5.582;2023-07-09T13:09:25;8.85;;;5.95;;
71236;SDS011;58984;51.960;5.582;2023-07-09T13:11:51;6.85;;;5.82;;
71236;SDS011;58984;51.960;5.582;2023-07-09T13:14:20;9.45;;;6.18;;
71236;SDS011;58984;51.960;5.582;2023-07-09T13:16:50;8.93;;;6.57;;
71236;SDS011;58984;51.960;5.582;2023-07-09T13:19:17;6.88;;;5.68;;
71236;SDS011;58984;51.960;5.582;2023-07-09T13:21:43;7.10;;;6.07;;
71236;SDS011;58984;51.960;5.582;2023-07-09T13:24:13;11.23;;;6.70;;
71236;SDS011;58984;51.960;5.582;2023-07-09T13:26:49;10.82;;;6.75;;
71236;SDS011;58984;51.960;5.582;2023-07-09T13:29:15;8.15;;;5.97;;
71236;SDS011;58984;51.960;5.582;2023-07-09T13:31:46;7.20;;;6.00;;
71236;SDS011;58984;51.960;5.582;2023-07-09T13:34:22;6.95;;;5.68;;
71236;SDS011;58984;51.960;5.582;2023-07-09T13:36:49;8.00;;;5.72;;
71236;SDS011;58984;51.960;5.582;2023-07-09T13:39:15;7.93;;;5.55;;
71236;SDS011;58984;51.960;5.582;2023-07-09T13:41:43;8.70;;;5.80;;
71236;SDS011;58984;51.960;5.582;2023-07-09T13:44:11;7.30;;;5.45;;
71236;SDS011;58984;51.960;5.582;2023-07-09T13:46:39;9.68;;;5.68;;
71236;SDS011;58984;51.960;5.582;2023-07-09T13:49:08;6.90;;;5.80;;
71236;SDS011;58984;51.960;5.582;2023-07-09T13:51:43;8.48;;;5.57;;
71236;SDS011;58984;51.960;5.582;2023-07-09T13:54:17;7.03;;;5.38;;
71236;SDS011;58984;51.960;5.582;2023-07-09T13:57:00;6.72;;;4.97;;
71236;SDS011;58984;51.960;5.582;2023-07-09T13:59:26;6.80;;;5.28;;
71236;SDS011;58984;51.960;5.582;2023-07-09T14:01:54;6.82;;;5.22;;
71236;SDS011;58984;51.960;5.582;2023-07-09T14:04:21;5.95;;;5.05;;
71236;SDS011;58984;51.960;5.582;2023-07-09T14:06:47;5.93;;;4.97;;
71236;SDS011;58984;51.960;5.582;2023-07-09T14:09:13;6.18;;;5.07;;
71236;SDS011;58984;51.960;5.582;2023-07-09T14:11:44;7.55;;;5.03;;
71236;SDS011;58984;51.960;5.582;2023-07-09T14:16:57;6.75;;;5.13;;
71236;SDS011;58984;51.960;5.582;2023-07-09T14:19:24;6.18;;;4.93;;
71236;SDS011;58984;51.960;5.582;2023-07-09T14:21:50;6.30;;;5.25;;
71236;SDS011;58984;51.960;5.582;2023-07-09T14:24:18;8.57;;;5.25;;
71236;SDS011;58984;51.960;5.582;2023-07-09T14:26:46;6.10;;;5.18;;
71236;SDS011;58984;51.960;5.582;2023-07-09T14:29:15;6.40;;;5.35;;
71236;SDS011;58984;51.960;5.582;2023-07-09T14:31:42;7.78;;;6.10;;
71236;SDS011;58984;51.960;5.582;2023-07-09T14:36:50;7.30;;;5.40;;
71236;SDS011;58984;51.960;5.582;2023-07-09T14:39:17;6.30;;;5.30;;
71236;SDS011;58984;51.960;5.582;2023-07-09T14:41:43;9.52;;;5.80;;
71236;SDS011;58984;51.960;5.582;2023-07-09T14:46:52;9.35;;;5.45;;
71236;SDS011;58984;51.960;5.582;2023-07-09T14:49:20;8.65;;;5.35;;
71236;SDS011;58984;51.960;5.582;2023-07-09T14:51:47;7.82;;;5.03;;
71236;SDS011;58984;51.960;5.582;2023-07-09T14:54:17;10.63;;;4.97;;
71236;SDS011;58984;51.960;5.582;2023-07-09T14:56:51;9.30;;;5.32;;
71236;SDS011;58984;51.960;5.582;2023-07-09T14:59:18;5.85;;;4.45;;
71236;SDS011;58984;51.960;5.582;2023-07-09T15:01:44;8.73;;;4.40;;
71236;SDS011;58984;51.960;5.582;2023-07-09T15:06:58;7.57;;;4.28;;
71236;SDS011;58984;51.960;5.582;2023-07-09T15:09:25;7.22;;;4.38;;
71236;SDS011;58984;51.960;5.582;2023-07-09T15:11:54;5.40;;;3.90;;
71236;SDS011;58984;51.960;5.582;2023-07-09T15:14:22;6.75;;;4.10;;
71236;SDS011;58984;51.960;5.582;2023-07-09T15:16:49;5.93;;;4.07;;
71236;SDS011;58984;51.960;5.582;2023-07-09T15:19:15;7.05;;;4.07;;
71236;SDS011;58984;51.960;5.582;2023-07-09T15:21:42;6.40;;;4.00;;
71236;SDS011;58984;51.960;5.582;2023-07-09T15:24:17;12.35;;;4.43;;
71236;SDS011;58984;51.960;5.582;2023-07-09T15:26:52;6.20;;;3.70;;
71236;SDS011;58984;51.960;5.582;2023-07-09T15:29:19;5.43;;;3.83;;
71236;SDS011;58984;51.960;5.582;2023-07-09T15:31:46;5.18;;;3.70;;
71236;SDS011;58984;51.960;5.582;2023-07-09T15:34:11;7.82;;;3.83;;
71236;SDS011;58984;51.960;5.582;2023-07-09T15:36:40;4.57;;;3.90;;
71236;SDS011;58984;51.960;5.582;2023-07-09T15:39:10;4.25;;;3.63;;
71236;SDS011;58984;51.960;5.582;2023-07-09T15:41:37;5.07;;;3.33;;